sensor_id;sensor_type;location;lat;lon;timestamp;pressure;altitude;pressure_sealevel;temperature;humidity
39613;BME280;25303;48.896;13.342;2023-10-31T00:01:04;91099.59;;;14.50;56.50
39613;BME280;25303;48.896;13.342;2023-10-31T00:03:48;91105.44;;;14.45;56.81
39613;BME280;25303;48.896;13.342;2023-10-31T00:06:31;91113.09;;;14.40;56.81
39613;BME280;25303;48.896;13.342;2023-10-31T00:09:14;91102.97;;;14.38;57.03
39613;BME280;25303;48.896;13.342;2023-10-31T00:11:58;91116.13;;;14.37;57.17
39613;BME280;25303;48.896;13.342;2023-10-31T00:14:41;91110.94;;;14.37;57.28
39613;BME280;25303;48.896;13.342;2023-10-31T00:17:23;91099.81;;;14.36;57.47
39613;BME280;25303;48.896;13.342;2023-10-31T00:20:08;91107.78;;;14.35;57.80
39613;BME280;25303;48.896;13.342;2023-10-31T00:22:51;91114.97;;;14.33;57.86
39613;BME280;25303;48.896;13.342;2023-10-31T00:25:34;91115.88;;;14.26;57.87
39613;BME280;25303;48.896;13.342;2023-10-31T00:28:17;91112.16;;;14.22;58.08
39613;BME280;25303;48.896;13.342;2023-10-31T00:31:00;91119.56;;;14.19;58.34
39613;BME280;25303;48.896;13.342;2023-10-31T00:33:45;91142.06;;;14.18;58.65
39613;BME280;25303;48.896;13.342;2023-10-31T00:36:30;91151.06;;;14.16;58.87
39613;BME280;25303;48.896;13.342;2023-10-31T00:39:12;91166.25;;;14.12;59.22
39613;BME280;25303;48.896;13.342;2023-10-31T00:41:55;91171.44;;;14.12;58.90
39613;BME280;25303;48.896;13.342;2023-10-31T00:44:38;91175.94;;;14.17;59.00
39613;BME280;25303;48.896;13.342;2023-10-31T00:47:21;91180.88;;;14.18;59.12
39613;BME280;25303;48.896;13.342;2023-10-31T00:50:05;91186.22;;;14.05;59.63
39613;BME280;25303;48.896;13.342;2023-10-31T00:52:50;91206.00;;;13.99;60.30
39613;BME280;25303;48.896;13.342;2023-10-31T00:55:33;91213.41;;;13.95;59.99
39613;BME280;25303;48.896;13.342;2023-10-31T00:58:16;91211.34;;;13.86;60.72
39613;BME280;25303;48.896;13.342;2023-10-31T01:00:59;91209.03;;;13.77;61.28
39613;BME280;25303;48.896;13.342;2023-10-31T01:03:43;91211.69;;;13.71;61.64
39613;BME280;25303;48.896;13.342;2023-10-31T01:06:25;91217.03;;;13.76;61.17
39613;BME280;25303;48.896;13.342;2023-10-31T01:09:10;91214.63;;;13.74;61.64
39613;BME280;25303;48.896;13.342;2023-10-31T01:11:54;91225.44;;;13.71;61.53
39613;BME280;25303;48.896;13.342;2023-10-31T01:14:37;91223.34;;;13.61;61.78
39613;BME280;25303;48.896;13.342;2023-10-31T01:17:20;91223.84;;;13.51;62.21
39613;BME280;25303;48.896;13.342;2023-10-31T01:20:04;91233.25;;;13.46;62.34
39613;BME280;25303;48.896;13.342;2023-10-31T01:22:48;91242.81;;;13.38;62.74
39613;BME280;25303;48.896;13.342;2023-10-31T01:25:32;91242.47;;;13.35;62.94
39613;BME280;25303;48.896;13.342;2023-10-31T01:28:15;91249.84;;;13.31;63.19
39613;BME280;25303;48.896;13.342;2023-10-31T01:30:59;91247.53;;;13.23;63.31
39613;BME280;25303;48.896;13.342;2023-10-31T01:33:42;91248.59;;;13.15;63.51
39613;BME280;25303;48.896;13.342;2023-10-31T01:36:25;91256.75;;;13.12;63.50
39613;BME280;25303;48.896;13.342;2023-10-31T01:39:08;91260.75;;;13.08;63.60
39613;BME280;25303;48.896;13.342;2023-10-31T01:41:53;91256.81;;;13.05;63.89
39613;BME280;25303;48.896;13.342;2023-10-31T01:44:36;91261.63;;;13.02;63.99
39613;BME280;25303;48.896;13.342;2023-10-31T01:47:19;91261.63;;;13.02;63.87
39613;BME280;25303;48.896;13.342;2023-10-31T01:50:03;91257.09;;;12.97;64.19
39613;BME280;25303;48.896;13.342;2023-10-31T01:52:49;91254.91;;;12.94;64.21
39613;BME280;25303;48.896;13.342;2023-10-31T01:55:32;91256.69;;;12.94;64.20
39613;BME280;25303;48.896;13.342;2023-10-31T01:58:17;91261.50;;;12.90;64.25
39613;BME280;25303;48.896;13.342;2023-10-31T02:01:04;91257.75;;;12.86;64.40
39613;BME280;25303;48.896;13.342;2023-10-31T02:03:47;91247.22;;;12.87;64.50
39613;BME280;25303;48.896;13.342;2023-10-31T02:06:30;91252.50;;;12.67;64.97
39613;BME280;25303;48.896;13.342;2023-10-31T02:09:13;91250.00;;;12.54;65.87
39613;BME280;25303;48.896;13.342;2023-10-31T02:11:56;91247.44;;;12.54;65.50
39613;BME280;25303;48.896;13.342;2023-10-31T02:14:41;91245.84;;;12.53;65.73
39613;BME280;25303;48.896;13.342;2023-10-31T02:17:23;91247.69;;;12.45;66.31
39613;BME280;25303;48.896;13.342;2023-10-31T02:20:07;91253.22;;;12.49;66.13
39613;BME280;25303;48.896;13.342;2023-10-31T02:22:52;91262.00;;;12.41;66.56
39613;BME280;25303;48.896;13.342;2023-10-31T02:25:35;91257.84;;;12.40;66.56
39613;BME280;25303;48.896;13.342;2023-10-31T02:28:17;91261.22;;;12.41;66.47
39613;BME280;25303;48.896;13.342;2023-10-31T02:31:00;91257.66;;;12.35;67.00
39613;BME280;25303;48.896;13.342;2023-10-31T02:33:43;91253.13;;;12.30;67.05
39613;BME280;25303;48.896;13.342;2023-10-31T02:36:27;91252.94;;;12.25;67.23
39613;BME280;25303;48.896;13.342;2023-10-31T02:39:11;91254.19;;;12.16;67.96
39613;BME280;25303;48.896;13.342;2023-10-31T02:41:54;91242.88;;;12.17;67.47
39613;BME280;25303;48.896;13.342;2023-10-31T02:44:37;91247.66;;;12.13;67.56
39613;BME280;25303;48.896;13.342;2023-10-31T02:47:20;91250.47;;;11.98;68.30
39613;BME280;25303;48.896;13.342;2023-10-31T02:50:03;91251.66;;;11.96;68.29
39613;BME280;25303;48.896;13.342;2023-10-31T02:52:46;91250.66;;;11.97;68.20
39613;BME280;25303;48.896;13.342;2023-10-31T02:55:32;91254.03;;;11.97;68.30
39613;BME280;25303;48.896;13.342;2023-10-31T02:58:15;91254.44;;;11.94;68.50
39613;BME280;25303;48.896;13.342;2023-10-31T03:00:58;91265.75;;;11.86;69.23
39613;BME280;25303;48.896;13.342;2023-10-31T03:03:41;91267.38;;;11.74;69.58
39613;BME280;25303;48.896;13.342;2023-10-31T03:06:24;91274.91;;;11.82;68.90
39613;BME280;25303;48.896;13.342;2023-10-31T03:09:07;91278.28;;;11.76;69.38
39613;BME280;25303;48.896;13.342;2023-10-31T03:11:52;91276.50;;;11.70;69.93
39613;BME280;25303;48.896;13.342;2023-10-31T03:14:35;91276.72;;;11.68;69.57
39613;BME280;25303;48.896;13.342;2023-10-31T03:17:19;91286.81;;;11.70;69.44
39613;BME280;25303;48.896;13.342;2023-10-31T03:20:03;91272.56;;;11.67;69.57
39613;BME280;25303;48.896;13.342;2023-10-31T03:22:46;91274.75;;;11.70;69.48
39613;BME280;25303;48.896;13.342;2023-10-31T03:25:29;91279.91;;;11.64;69.78
39613;BME280;25303;48.896;13.342;2023-10-31T03:28:20;91279.94;;;11.57;70.29
39613;BME280;25303;48.896;13.342;2023-10-31T03:31:04;91291.63;;;11.53;70.28
39613;BME280;25303;48.896;13.342;2023-10-31T03:33:47;91295.59;;;11.55;70.03
39613;BME280;25303;48.896;13.342;2023-10-31T03:36:30;91300.56;;;11.57;69.79
39613;BME280;25303;48.896;13.342;2023-10-31T03:39:14;91293.22;;;11.54;69.92
39613;BME280;25303;48.896;13.342;2023-10-31T03:41:59;91296.97;;;11.51;70.12
39613;BME280;25303;48.896;13.342;2023-10-31T03:44:43;91299.97;;;11.48;70.36
39613;BME280;25303;48.896;13.342;2023-10-31T03:47:28;91307.28;;;11.45;70.30
39613;BME280;25303;48.896;13.342;2023-10-31T03:50:11;91305.91;;;11.42;70.35
39613;BME280;25303;48.896;13.342;2023-10-31T03:52:54;91304.31;;;11.41;70.37
39613;BME280;25303;48.896;13.342;2023-10-31T03:55:37;91308.69;;;11.54;69.96
39613;BME280;25303;48.896;13.342;2023-10-31T03:58:20;91309.66;;;11.53;69.80
39613;BME280;25303;48.896;13.342;2023-10-31T04:01:06;91316.00;;;11.57;70.75
39613;BME280;25303;48.896;13.342;2023-10-31T04:03:49;91314.00;;;11.59;69.47
39613;BME280;25303;48.896;13.342;2023-10-31T04:06:32;91318.38;;;11.59;69.45
39613;BME280;25303;48.896;13.342;2023-10-31T04:09:15;91318.59;;;11.57;69.63
39613;BME280;25303;48.896;13.342;2023-10-31T04:11:58;91315.44;;;11.48;70.00
39613;BME280;25303;48.896;13.342;2023-10-31T04:14:41;91316.00;;;11.50;69.80
39613;BME280;25303;48.896;13.342;2023-10-31T04:17:25;91319.56;;;11.43;70.26
39613;BME280;25303;48.896;13.342;2023-10-31T04:20:09;91329.88;;;11.43;70.07
39613;BME280;25303;48.896;13.342;2023-10-31T04:22:52;91326.53;;;11.42;70.11
39613;BME280;25303;48.896;13.342;2023-10-31T04:25:35;91331.09;;;11.40;70.13
39613;BME280;25303;48.896;13.342;2023-10-31T04:28:17;91333.88;;;11.38;70.17
39613;BME280;25303;48.896;13.342;2023-10-31T04:31:00;91341.00;;;11.43;69.90
39613;BME280;25303;48.896;13.342;2023-10-31T04:33:45;91338.41;;;11.36;70.14
39613;BME280;25303;48.896;13.342;2023-10-31T04:36:28;91347.75;;;11.31;70.35
39613;BME280;25303;48.896;13.342;2023-10-31T04:39:11;91351.31;;;11.30;70.07
39613;BME280;25303;48.896;13.342;2023-10-31T04:41:53;91357.25;;;11.30;70.14
39613;BME280;25303;48.896;13.342;2023-10-31T04:44:36;91357.84;;;11.19;70.35
39613;BME280;25303;48.896;13.342;2023-10-31T04:47:19;91360.59;;;11.17;70.25
39613;BME280;25303;48.896;13.342;2023-10-31T04:50:04;91368.91;;;11.13;70.40
39613;BME280;25303;48.896;13.342;2023-10-31T04:52:48;91374.28;;;11.11;70.39
39613;BME280;25303;48.896;13.342;2023-10-31T04:55:31;91371.50;;;11.13;70.34
39613;BME280;25303;48.896;13.342;2023-10-31T04:58:14;91371.31;;;11.14;70.42
39613;BME280;25303;48.896;13.342;2023-10-31T05:00:57;91376.63;;;11.13;70.40
39613;BME280;25303;48.896;13.342;2023-10-31T05:03:40;91372.47;;;11.12;70.54
39613;BME280;25303;48.896;13.342;2023-10-31T05:06:24;91371.31;;;11.14;70.29
39613;BME280;25303;48.896;13.342;2023-10-31T05:09:07;91378.81;;;11.16;70.36
39613;BME280;25303;48.896;13.342;2023-10-31T05:11:53;91381.41;;;11.16;70.34
39613;BME280;25303;48.896;13.342;2023-10-31T05:14:36;91378.81;;;11.09;70.40
39613;BME280;25303;48.896;13.342;2023-10-31T05:17:19;91380.78;;;11.07;70.52
39613;BME280;25303;48.896;13.342;2023-10-31T05:20:03;91371.69;;;11.04;70.48
39613;BME280;25303;48.896;13.342;2023-10-31T05:22:47;91370.72;;;11.05;70.46
39613;BME280;25303;48.896;13.342;2023-10-31T05:25:30;91388.31;;;11.02;70.68
39613;BME280;25303;48.896;13.342;2023-10-31T05:28:13;91387.16;;;11.04;70.47
39613;BME280;25303;48.896;13.342;2023-10-31T05:30:56;91386.34;;;11.04;70.39
39613;BME280;25303;48.896;13.342;2023-10-31T05:33:40;91384.13;;;10.94;70.72
39613;BME280;25303;48.896;13.342;2023-10-31T05:36:24;91394.63;;;10.92;70.74
39613;BME280;25303;48.896;13.342;2023-10-31T05:39:08;91414.44;;;10.92;70.61
39613;BME280;25303;48.896;13.342;2023-10-31T05:41:51;91414.84;;;10.89;70.34
39613;BME280;25303;48.896;13.342;2023-10-31T05:44:34;91415.22;;;10.86;70.40
39613;BME280;25303;48.896;13.342;2023-10-31T05:47:17;91419.16;;;10.82;70.50
39613;BME280;25303;48.896;13.342;2023-10-31T05:50:00;91425.88;;;10.76;70.37
39613;BME280;25303;48.896;13.342;2023-10-31T05:52:44;91425.88;;;10.76;70.17
39613;BME280;25303;48.896;13.342;2023-10-31T05:55:28;91433.00;;;10.74;70.20
39613;BME280;25303;48.896;13.342;2023-10-31T05:58:12;91452.38;;;10.70;70.33
39613;BME280;25303;48.896;13.342;2023-10-31T06:00:57;91464.84;;;10.66;69.85
39613;BME280;25303;48.896;13.342;2023-10-31T06:03:41;91467.63;;;10.64;69.90
39613;BME280;25303;48.896;13.342;2023-10-31T06:06:25;91473.72;;;10.57;70.38
39613;BME280;25303;48.896;13.342;2023-10-31T06:09:08;91474.31;;;10.59;69.85
39613;BME280;25303;48.896;13.342;2023-10-31T06:11:53;91488.75;;;10.60;70.04
39613;BME280;25303;48.896;13.342;2023-10-31T06:14:36;91502.06;;;10.63;69.85
39613;BME280;25303;48.896;13.342;2023-10-31T06:17:19;91512.97;;;10.66;69.90
39613;BME280;25303;48.896;13.342;2023-10-31T06:20:03;91515.13;;;10.69;69.78
39613;BME280;25303;48.896;13.342;2023-10-31T06:22:46;91515.53;;;10.66;69.51
39613;BME280;25303;48.896;13.342;2023-10-31T06:25:29;91521.06;;;10.62;69.51
39613;BME280;25303;48.896;13.342;2023-10-31T06:28:13;91517.66;;;10.62;69.44
39613;BME280;25303;48.896;13.342;2023-10-31T06:30:56;91545.19;;;10.61;69.55
39613;BME280;25303;48.896;13.342;2023-10-31T06:33:40;91549.16;;;10.64;69.25
39613;BME280;25303;48.896;13.342;2023-10-31T06:36:24;91549.16;;;10.64;69.22
39613;BME280;25303;48.896;13.342;2023-10-31T06:39:07;91554.50;;;10.62;69.17
39613;BME280;25303;48.896;13.342;2023-10-31T06:41:54;91566.16;;;10.58;69.13
39613;BME280;25303;48.896;13.342;2023-10-31T06:44:38;91556.47;;;10.60;69.19
39613;BME280;25303;48.896;13.342;2023-10-31T06:47:21;91552.91;;;10.61;69.13
39613;BME280;25303;48.896;13.342;2023-10-31T06:50:06;91550.94;;;10.63;69.14
39613;BME280;25303;48.896;13.342;2023-10-31T06:52:50;91544.63;;;10.66;68.92
39613;BME280;25303;48.896;13.342;2023-10-31T06:55:33;91552.16;;;10.68;69.03
39613;BME280;25303;48.896;13.342;2023-10-31T06:58:16;91558.09;;;10.68;68.88
39613;BME280;25303;48.896;13.342;2023-10-31T07:01:01;91546.00;;;10.69;68.80
39613;BME280;25303;48.896;13.342;2023-10-31T07:03:44;91543.25;;;10.70;68.91
39613;BME280;25303;48.896;13.342;2023-10-31T07:06:28;91546.25;;;10.74;68.76
39613;BME280;25303;48.896;13.342;2023-10-31T07:09:11;91558.34;;;10.73;68.84
39613;BME280;25303;48.896;13.342;2023-10-31T07:11:55;91553.19;;;10.73;69.13
39613;BME280;25303;48.896;13.342;2023-10-31T07:14:38;91551.81;;;10.77;69.43
39613;BME280;25303;48.896;13.342;2023-10-31T07:17:23;91559.97;;;10.81;68.99
39613;BME280;25303;48.896;13.342;2023-10-31T07:20:07;91552.84;;;10.83;69.33
39613;BME280;25303;48.896;13.342;2023-10-31T07:22:50;91566.31;;;10.85;69.33
39613;BME280;25303;48.896;13.342;2023-10-31T07:25:34;91583.94;;;10.88;69.19
39613;BME280;25303;48.896;13.342;2023-10-31T07:28:17;91597.25;;;10.92;69.23
39613;BME280;25303;48.896;13.342;2023-10-31T07:31:00;91593.66;;;10.93;69.16
39613;BME280;25303;48.896;13.342;2023-10-31T07:33:45;91595.47;;;10.92;68.86
39613;BME280;25303;48.896;13.342;2023-10-31T07:36:28;91597.84;;;10.94;69.21
39613;BME280;25303;48.896;13.342;2023-10-31T07:39:14;91598.66;;;10.94;68.93
39613;BME280;25303;48.896;13.342;2023-10-31T07:41:57;91603.81;;;10.94;68.95
39613;BME280;25303;48.896;13.342;2023-10-31T07:44:40;91607.97;;;10.96;68.81
39613;BME280;25303;48.896;13.342;2023-10-31T07:47:23;91603.00;;;10.94;69.04
39613;BME280;25303;48.896;13.342;2023-10-31T07:50:09;91624.41;;;10.94;68.90
39613;BME280;25303;48.896;13.342;2023-10-31T07:52:54;91625.38;;;10.93;68.63
39613;BME280;25303;48.896;13.342;2023-10-31T07:55:37;91617.41;;;10.88;68.59
39613;BME280;25303;48.896;13.342;2023-10-31T07:58:20;91602.34;;;10.85;68.70
39613;BME280;25303;48.896;13.342;2023-10-31T08:01:03;91600.38;;;10.87;68.69
39613;BME280;25303;48.896;13.342;2023-10-31T08:03:48;91626.75;;;10.89;68.53
39613;BME280;25303;48.896;13.342;2023-10-31T08:06:32;91639.00;;;10.87;68.29
39613;BME280;25303;48.896;13.342;2023-10-31T08:09:16;91631.66;;;10.84;68.18
39613;BME280;25303;48.896;13.342;2023-10-31T08:12:01;91649.78;;;10.69;68.21
39613;BME280;25303;48.896;13.342;2023-10-31T08:14:45;91655.72;;;10.70;67.89
39613;BME280;25303;48.896;13.342;2023-10-31T08:17:28;91634.47;;;10.61;67.91
39613;BME280;25303;48.896;13.342;2023-10-31T08:20:11;91626.75;;;10.61;67.80
39613;BME280;25303;48.896;13.342;2023-10-31T08:22:56;91628.91;;;10.57;67.79
39613;BME280;25303;48.896;13.342;2023-10-31T08:25:40;91639.38;;;10.56;68.04
39613;BME280;25303;48.896;13.342;2023-10-31T08:28:23;91646.53;;;10.60;68.05
39613;BME280;25303;48.896;13.342;2023-10-31T08:31:07;91654.94;;;10.69;67.90
39613;BME280;25303;48.896;13.342;2023-10-31T08:33:51;91664.25;;;10.70;68.02
39613;BME280;25303;48.896;13.342;2023-10-31T08:36:34;91671.97;;;10.70;67.94
39613;BME280;25303;48.896;13.342;2023-10-31T08:39:18;91680.50;;;10.77;67.94
39613;BME280;25303;48.896;13.342;2023-10-31T08:42:03;91681.94;;;10.80;67.71
39613;BME280;25303;48.896;13.342;2023-10-31T08:44:47;91676.78;;;10.80;67.63
39613;BME280;25303;48.896;13.342;2023-10-31T08:47:30;91666.50;;;10.80;67.79
39613;BME280;25303;48.896;13.342;2023-10-31T08:50:13;91673.84;;;10.83;67.91
39613;BME280;25303;48.896;13.342;2023-10-31T08:52:56;91666.91;;;10.84;67.73
39613;BME280;25303;48.896;13.342;2023-10-31T08:55:44;91659.56;;;10.81;67.71
39613;BME280;25303;48.896;13.342;2023-10-31T08:58:27;91650.88;;;10.88;67.45
39613;BME280;25303;48.896;13.342;2023-10-31T09:01:13;91649.53;;;10.92;67.45
39613;BME280;25303;48.896;13.342;2023-10-31T09:03:57;91659.06;;;10.92;67.31
39613;BME280;25303;48.896;13.342;2023-10-31T09:06:40;91657.47;;;10.91;67.27
39613;BME280;25303;48.896;13.342;2023-10-31T09:09:24;91649.88;;;10.83;67.12
39613;BME280;25303;48.896;13.342;2023-10-31T09:12:08;91646.69;;;10.81;67.85
39613;BME280;25303;48.896;13.342;2023-10-31T09:14:52;91645.53;;;10.83;67.68
39613;BME280;25303;48.896;13.342;2023-10-31T09:17:35;91647.16;;;10.91;67.72
39613;BME280;25303;48.896;13.342;2023-10-31T09:20:19;91653.47;;;10.88;67.53
39613;BME280;25303;48.896;13.342;2023-10-31T09:23:02;91639.97;;;10.86;67.58
39613;BME280;25303;48.896;13.342;2023-10-31T09:25:46;91617.00;;;10.85;67.61
39613;BME280;25303;48.896;13.342;2023-10-31T09:28:30;91603.75;;;10.88;67.63
39613;BME280;25303;48.896;13.342;2023-10-31T09:31:14;91603.75;;;10.88;67.47
39613;BME280;25303;48.896;13.342;2023-10-31T09:33:57;91604.63;;;11.02;67.29
39613;BME280;25303;48.896;13.342;2023-10-31T09:36:42;91636.66;;;10.92;67.67
39613;BME280;25303;48.896;13.342;2023-10-31T09:39:27;91664.78;;;10.94;67.33
39613;BME280;25303;48.896;13.342;2023-10-31T09:42:10;91694.28;;;10.91;67.29
39613;BME280;25303;48.896;13.342;2023-10-31T09:44:55;91689.94;;;10.92;67.42
39613;BME280;25303;48.896;13.342;2023-10-31T09:47:38;91678.09;;;10.98;67.63
39613;BME280;25303;48.896;13.342;2023-10-31T09:50:21;91682.22;;;10.92;67.01
39613;BME280;25303;48.896;13.342;2023-10-31T09:53:05;91680.63;;;10.91;67.13
39613;BME280;25303;48.896;13.342;2023-10-31T09:55:50;91668.75;;;10.90;67.00
39613;BME280;25303;48.896;13.342;2023-10-31T09:58:35;91671.84;;;10.85;67.13
39613;BME280;25303;48.896;13.342;2023-10-31T10:01:19;91667.28;;;10.81;67.11
39613;BME280;25303;48.896;13.342;2023-10-31T10:04:03;91665.56;;;10.88;66.94
39613;BME280;25303;48.896;13.342;2023-10-31T10:06:51;91650.84;;;10.82;66.92
39613;BME280;25303;48.896;13.342;2023-10-31T10:09:36;91627.63;;;10.75;67.13
39613;BME280;25303;48.896;13.342;2023-10-31T10:12:19;91627.41;;;10.70;66.93
39613;BME280;25303;48.896;13.342;2023-10-31T10:15:02;91650.16;;;10.66;66.96
39613;BME280;25303;48.896;13.342;2023-10-31T10:17:50;91703.94;;;10.61;66.71
39613;BME280;25303;48.896;13.342;2023-10-31T10:20:33;91709.91;;;10.61;66.31
39613;BME280;25303;48.896;13.342;2023-10-31T10:23:16;91725.28;;;10.55;66.56
39613;BME280;25303;48.896;13.342;2023-10-31T10:26:00;91726.81;;;10.49;66.52
39613;BME280;25303;48.896;13.342;2023-10-31T10:28:46;91729.75;;;10.46;66.54
39613;BME280;25303;48.896;13.342;2023-10-31T10:31:30;91723.06;;;10.52;66.53
39613;BME280;25303;48.896;13.342;2023-10-31T10:34:15;91709.03;;;10.54;66.54
39613;BME280;25303;48.896;13.342;2023-10-31T10:36:58;91723.06;;;10.52;66.37
39613;BME280;25303;48.896;13.342;2023-10-31T10:39:45;91732.75;;;10.49;66.37
39613;BME280;25303;48.896;13.342;2023-10-31T10:42:32;91760.28;;;10.49;66.48
39613;BME280;25303;48.896;13.342;2023-10-31T10:45:16;91781.84;;;10.48;66.38
39613;BME280;25303;48.896;13.342;2023-10-31T10:48:03;91777.47;;;10.48;66.50
39613;BME280;25303;48.896;13.342;2023-10-31T10:50:52;91767.00;;;10.50;66.50
39613;BME280;25303;48.896;13.342;2023-10-31T10:53:44;91769.59;;;10.50;66.54
39613;BME280;25303;48.896;13.342;2023-10-31T10:56:36;91761.25;;;10.48;66.70
39613;BME280;25303;48.896;13.342;2023-10-31T10:59:26;91744.22;;;10.47;66.75
39613;BME280;25303;48.896;13.342;2023-10-31T11:02:13;91720.88;;;10.48;66.79
39613;BME280;25303;48.896;13.342;2023-10-31T11:04:57;91702.84;;;10.48;66.73
39613;BME280;25303;48.896;13.342;2023-10-31T11:07:42;91693.53;;;10.47;66.95
39613;BME280;25303;48.896;13.342;2023-10-31T11:10:26;91709.78;;;10.48;66.99
39613;BME280;25303;48.896;13.342;2023-10-31T11:13:11;91733.88;;;10.40;66.61
39613;BME280;25303;48.896;13.342;2023-10-31T11:15:58;91716.34;;;10.36;66.41
39613;BME280;25303;48.896;13.342;2023-10-31T11:18:42;91705.63;;;10.32;66.29
39613;BME280;25303;48.896;13.342;2023-10-31T11:21:28;91717.34;;;10.34;66.50
39613;BME280;25303;48.896;13.342;2023-10-31T11:24:12;91751.16;;;10.31;66.52
39613;BME280;25303;48.896;13.342;2023-10-31T11:26:58;91757.03;;;10.25;66.44
39613;BME280;25303;48.896;13.342;2023-10-31T11:29:42;91741.94;;;10.22;66.31
39613;BME280;25303;48.896;13.342;2023-10-31T11:32:26;91742.56;;;10.24;66.23
39613;BME280;25303;48.896;13.342;2023-10-31T11:35:12;91733.81;;;10.18;66.15
39613;BME280;25303;48.896;13.342;2023-10-31T11:38:01;91729.84;;;10.16;66.09
39613;BME280;25303;48.896;13.342;2023-10-31T11:40:59;91733.31;;;10.08;66.07
39613;BME280;25303;48.896;13.342;2023-10-31T11:43:51;91732.50;;;10.08;66.55
39613;BME280;25303;48.896;13.342;2023-10-31T11:46:35;91721.25;;;10.09;66.16
39613;BME280;25303;48.896;13.342;2023-10-31T11:49:18;91715.31;;;10.08;66.36
39613;BME280;25303;48.896;13.342;2023-10-31T11:52:01;91725.41;;;10.10;66.43
39613;BME280;25303;48.896;13.342;2023-10-31T11:54:45;91742.06;;;10.14;66.36
39613;BME280;25303;48.896;13.342;2023-10-31T11:57:30;91749.44;;;10.17;66.21
39613;BME280;25303;48.896;13.342;2023-10-31T12:00:20;91751.44;;;10.22;66.38
39613;BME280;25303;48.896;13.342;2023-10-31T12:03:05;91751.69;;;10.27;66.29
39613;BME280;25303;48.896;13.342;2023-10-31T12:05:52;91756.03;;;10.26;65.73
39613;BME280;25303;48.896;13.342;2023-10-31T12:08:38;91752.13;;;10.30;66.02
39613;BME280;25303;48.896;13.342;2023-10-31T12:11:22;91753.53;;;10.33;66.15
39613;BME280;25303;48.896;13.342;2023-10-31T12:14:07;91764.44;;;10.35;65.95
39613;BME280;25303;48.896;13.342;2023-10-31T12:16:51;91773.56;;;10.38;66.00
39613;BME280;25303;48.896;13.342;2023-10-31T12:19:34;91771.00;;;10.38;65.95
39613;BME280;25303;48.896;13.342;2023-10-31T12:22:17;91760.72;;;10.38;65.97
39613;BME280;25303;48.896;13.342;2023-10-31T12:25:02;91760.28;;;10.34;65.83
39613;BME280;25303;48.896;13.342;2023-10-31T12:27:46;91762.59;;;10.29;65.64
39613;BME280;25303;48.896;13.342;2023-10-31T12:30:31;91756.81;;;10.27;65.87
39613;BME280;25303;48.896;13.342;2023-10-31T12:33:15;91751.88;;;10.25;66.10
39613;BME280;25303;48.896;13.342;2023-10-31T12:35:59;91748.94;;;10.28;66.14
39613;BME280;25303;48.896;13.342;2023-10-31T12:38:42;91748.13;;;10.28;66.18
39613;BME280;25303;48.896;13.342;2023-10-31T12:41:26;91745.56;;;10.28;66.47
39613;BME280;25303;48.896;13.342;2023-10-31T12:44:12;91749.94;;;10.27;66.49
39613;BME280;25303;48.896;13.342;2023-10-31T12:46:57;91749.31;;;10.25;66.65
39613;BME280;25303;48.896;13.342;2023-10-31T12:49:41;91740.53;;;10.19;66.75
39613;BME280;25303;48.896;13.342;2023-10-31T12:52:24;91743.13;;;10.19;66.76
39613;BME280;25303;48.896;13.342;2023-10-31T12:55:12;91742.84;;;10.14;67.03
39613;BME280;25303;48.896;13.342;2023-10-31T12:57:58;91749.53;;;10.09;67.04
39613;BME280;25303;48.896;13.342;2023-10-31T13:00:41;91750.06;;;10.04;67.13
39613;BME280;25303;48.896;13.342;2023-10-31T13:03:25;91747.84;;;10.01;67.29
39613;BME280;25303;48.896;13.342;2023-10-31T13:06:14;91744.25;;;9.95;67.65
39613;BME280;25303;48.896;13.342;2023-10-31T13:08:58;91754.94;;;9.99;67.58
39613;BME280;25303;48.896;13.342;2023-10-31T13:11:41;91752.03;;;10.02;67.62
39613;BME280;25303;48.896;13.342;2023-10-31T13:14:24;91745.28;;;10.01;67.63
39613;BME280;25303;48.896;13.342;2023-10-31T13:17:07;91747.06;;;10.00;67.77
39613;BME280;25303;48.896;13.342;2023-10-31T13:19:51;91749.19;;;9.97;67.87
39613;BME280;25303;48.896;13.342;2023-10-31T13:22:34;91766.75;;;9.93;67.82
39613;BME280;25303;48.896;13.342;2023-10-31T13:25:18;91774.66;;;9.92;67.87
39613;BME280;25303;48.896;13.342;2023-10-31T13:28:00;91788.66;;;9.89;68.04
39613;BME280;25303;48.896;13.342;2023-10-31T13:30:46;91794.41;;;9.91;68.02
39613;BME280;25303;48.896;13.342;2023-10-31T13:33:30;91786.69;;;9.91;68.10
39613;BME280;25303;48.896;13.342;2023-10-31T13:36:15;91784.31;;;9.90;68.06
39613;BME280;25303;48.896;13.342;2023-10-31T13:38:59;91790.16;;;9.83;68.04
39613;BME280;25303;48.896;13.342;2023-10-31T13:41:42;91790.78;;;9.85;68.14
39613;BME280;25303;48.896;13.342;2023-10-31T13:44:25;91803.81;;;9.84;67.77
39613;BME280;25303;48.896;13.342;2023-10-31T13:47:08;91803.97;;;9.82;67.79
39613;BME280;25303;48.896;13.342;2023-10-31T13:49:52;91811.69;;;9.82;68.39
39613;BME280;25303;48.896;13.342;2023-10-31T13:52:36;91809.31;;;9.81;67.92
39613;BME280;25303;48.896;13.342;2023-10-31T13:55:20;91803.72;;;9.77;68.09
39613;BME280;25303;48.896;13.342;2023-10-31T13:58:03;91811.19;;;9.72;68.11
39613;BME280;25303;48.896;13.342;2023-10-31T14:00:46;91825.63;;;9.73;68.06
39613;BME280;25303;48.896;13.342;2023-10-31T14:03:29;91825.16;;;9.69;68.03
39613;BME280;25303;48.896;13.342;2023-10-31T14:06:13;91821.63;;;9.70;68.15
39613;BME280;25303;48.896;13.342;2023-10-31T14:08:57;91829.94;;;9.72;68.21
39613;BME280;25303;48.896;13.342;2023-10-31T14:11:41;91830.22;;;9.78;68.40
39613;BME280;25303;48.896;13.342;2023-10-31T14:14:24;91839.19;;;9.82;68.28
39613;BME280;25303;48.896;13.342;2023-10-31T14:17:07;91844.94;;;9.84;68.30